createdAt,value
2022-08-17T00:00:44.136Z,5.30
2022-08-17T00:03:17.348Z,4.93
2022-08-17T00:06:14.257Z,5.53
2022-08-17T00:08:56.026Z,13.40
2022-08-17T00:11:34.010Z,6.43
2022-08-17T00:14:08.294Z,5.82
2022-08-17T00:16:56.359Z,4.90
2022-08-17T00:19:28.241Z,4.95
2022-08-17T00:22:32.436Z,5.50
2022-08-17T00:24:48.283Z,5.28
2022-08-17T00:27:15.961Z,5.40
2022-08-17T00:29:45.586Z,5.57
2022-08-17T00:33:14.163Z,4.83
2022-08-17T00:35:09.673Z,5.43
2022-08-17T00:37:39.793Z,5.10
2022-08-17T00:40:10.102Z,5.60
2022-08-17T00:42:40.275Z,5.38
2022-08-17T00:45:09.891Z,5.50
2022-08-17T00:47:37.700Z,5.77
2022-08-17T00:50:07.547Z,5.20
2022-08-17T00:52:41.923Z,5.32
2022-08-17T00:55:13.636Z,6.20
2022-08-17T00:57:46.496Z,5.10
2022-08-17T01:00:26.893Z,5.28
2022-08-17T01:03:06.587Z,6.47
2022-08-17T01:05:42.402Z,5.60
2022-08-17T01:08:19.858Z,5.18
2022-08-17T01:11:00.379Z,5.00
2022-08-17T01:13:40.678Z,5.13
2022-08-17T01:16:17.292Z,5.40
2022-08-17T01:18:49.225Z,5.40
2022-08-17T01:21:37.107Z,5.55
2022-08-17T01:24:10.414Z,5.25
2022-08-17T01:26:40.448Z,4.90
2022-08-17T01:29:08.632Z,4.75
2022-08-17T01:31:39.700Z,4.83
2022-08-17T01:34:12.697Z,4.77
2022-08-17T01:36:42.830Z,5.07
2022-08-17T01:39:18.807Z,5.25
2022-08-17T01:41:52.845Z,5.00
2022-08-17T01:44:22.122Z,4.93
2022-08-17T01:46:49.864Z,4.97
2022-08-17T01:49:23.841Z,5.67
2022-08-17T01:51:51.802Z,5.30
2022-08-17T01:54:20.361Z,5.30
2022-08-17T01:56:50.661Z,4.88
2022-08-17T01:59:20.023Z,6.00
2022-08-17T02:01:48.273Z,5.68
2022-08-17T02:04:16.756Z,5.70
2022-08-17T02:06:53.537Z,5.13
2022-08-17T02:09:25.454Z,5.05
2022-08-17T02:11:56.879Z,6.00
2022-08-17T02:14:25.589Z,5.15
2022-08-17T02:16:56.438Z,5.25
2022-08-17T02:19:26.233Z,5.17
2022-08-17T02:21:54.698Z,4.95
2022-08-17T02:25:00.385Z,5.13
2022-08-17T02:27:19.425Z,5.05
2022-08-17T02:29:47.124Z,5.28
2022-08-17T02:32:28.630Z,6.03
2022-08-17T02:34:58.194Z,6.27
2022-08-17T02:37:30.182Z,5.15
2022-08-17T02:39:59.871Z,5.70
2022-08-17T02:42:34.770Z,5.20
2022-08-17T02:45:05.941Z,5.65
2022-08-17T02:47:34.055Z,5.68
2022-08-17T02:50:01.770Z,5.33
2022-08-17T02:52:43.303Z,5.63
2022-08-17T02:58:34.612Z,6.55
2022-08-17T03:01:08.390Z,7.13
2022-08-17T03:03:40.261Z,6.15
2022-08-17T03:06:09.771Z,5.63
2022-08-17T03:08:38.348Z,6.10
2022-08-17T03:11:06.126Z,5.28
2022-08-17T03:13:34.257Z,4.75
2022-08-17T03:16:01.997Z,5.20
2022-08-17T03:18:29.710Z,5.82
2022-08-17T03:21:00.140Z,5.07
2022-08-17T03:23:29.649Z,5.40
2022-08-17T03:25:58.224Z,5.25
2022-08-17T03:28:28.457Z,4.88
2022-08-17T03:30:56.202Z,5.50
2022-08-17T03:33:27.046Z,5.45
2022-08-17T03:35:54.724Z,5.15
2022-08-17T03:38:23.280Z,4.90
2022-08-17T03:40:56.328Z,4.57
2022-08-17T03:43:30.244Z,4.80
2022-08-17T03:46:34.167Z,4.70
2022-08-17T03:49:24.284Z,4.38
2022-08-17T03:52:12.614Z,4.82
2022-08-17T03:54:59.070Z,5.35
2022-08-17T03:57:27.783Z,5.60
2022-08-17T04:00:00.663Z,5.23
2022-08-17T04:02:33.946Z,5.63
2022-08-17T04:05:02.383Z,4.95
2022-08-17T04:07:34.912Z,5.60
2022-08-17T04:10:03.998Z,5.20
2022-08-17T04:12:44.291Z,4.80
2022-08-17T04:15:13.030Z,5.32
2022-08-17T04:17:40.876Z,5.40
2022-08-17T04:20:11.129Z,4.90
2022-08-17T04:22:39.371Z,5.80
2022-08-17T04:25:18.572Z,5.95
2022-08-17T04:27:46.239Z,5.50
2022-08-17T04:30:14.895Z,5.60
2022-08-17T04:33:07.232Z,5.93
2022-08-17T04:35:46.903Z,6.23
2022-08-17T04:38:17.367Z,5.97
2022-08-17T04:41:03.842Z,6.57
2022-08-17T04:43:33.365Z,6.78
2022-08-17T04:46:10.727Z,6.55
2022-08-17T04:48:42.860Z,6.25
2022-08-17T04:51:21.466Z,5.30
2022-08-17T04:53:54.480Z,5.83
2022-08-17T04:56:26.155Z,4.97
2022-08-17T04:58:56.768Z,5.70
2022-08-17T05:01:29.415Z,5.78
2022-08-17T05:04:02.380Z,5.47
2022-08-17T05:06:49.957Z,5.40
2022-08-17T05:09:18.670Z,5.40
2022-08-17T05:11:47.894Z,5.90
2022-08-17T05:14:15.605Z,5.33
2022-08-17T05:16:43.281Z,5.47
2022-08-17T05:19:11.261Z,5.50
2022-08-17T05:21:38.971Z,5.40
2022-08-17T05:24:07.149Z,5.80
2022-08-17T05:26:54.403Z,6.13
2022-08-17T05:29:23.055Z,4.97
2022-08-17T05:32:47.896Z,5.33
2022-08-17T05:35:01.626Z,4.95
2022-08-17T05:37:29.303Z,5.20
2022-08-17T05:39:59.765Z,4.93
2022-08-17T05:42:30.227Z,4.50
2022-08-17T05:44:59.017Z,5.40
2022-08-17T05:47:27.519Z,4.90
2022-08-17T05:49:55.824Z,6.13
2022-08-17T05:52:41.702Z,5.30
2022-08-17T05:55:29.043Z,5.57
2022-08-17T05:58:21.976Z,5.72
2022-08-17T06:01:02.943Z,5.50
2022-08-17T06:03:43.550Z,4.77
2022-08-17T06:06:21.833Z,5.30
2022-08-17T06:09:33.010Z,5.30
2022-08-17T06:12:44.692Z,5.00
2022-08-17T06:15:55.467Z,5.60
2022-08-17T06:18:27.317Z,6.20
2022-08-17T06:21:03.989Z,5.95
2022-08-17T06:23:40.731Z,5.40
2022-08-17T06:26:43.256Z,5.78
2022-08-17T06:29:39.041Z,5.45
2022-08-17T06:32:10.121Z,5.32
2022-08-17T06:34:42.756Z,5.05
2022-08-17T06:37:31.406Z,5.22
2022-08-17T06:40:28.245Z,5.00
2022-08-17T06:43:27.955Z,5.50
2022-08-17T06:46:22.470Z,4.60
2022-08-17T06:49:14.263Z,5.47
2022-08-17T06:51:55.447Z,5.82
2022-08-17T06:55:07.687Z,4.60
2022-08-17T06:57:51.322Z,4.68
2022-08-17T07:00:33.951Z,4.43
2022-08-17T07:03:24.325Z,4.73
2022-08-17T07:05:59.210Z,4.72
2022-08-17T07:08:38.231Z,5.35
2022-08-17T07:11:13.374Z,5.47
2022-08-17T07:16:49.363Z,5.20
2022-08-17T07:19:20.584Z,4.45
2022-08-17T07:22:03.132Z,3.60
2022-08-17T07:24:48.730Z,4.05
2022-08-17T07:27:23.137Z,4.18
2022-08-17T07:29:59.601Z,4.50
2022-08-17T07:32:31.928Z,4.13
2022-08-17T07:35:13.122Z,4.10
2022-08-17T07:37:56.102Z,4.23
2022-08-17T07:40:30.871Z,3.78
2022-08-17T07:43:22.417Z,3.72
2022-08-17T07:46:44.573Z,3.78
2022-08-17T07:49:14.993Z,3.60
2022-08-17T07:51:46.037Z,4.43
2022-08-17T07:54:21.667Z,4.30
2022-08-17T07:56:52.780Z,3.72
2022-08-17T07:59:33.524Z,4.32
2022-08-17T08:02:17.250Z,4.20
2022-08-17T08:05:01.077Z,4.13
2022-08-17T08:07:39.336Z,4.20
2022-08-17T08:10:31.451Z,4.03
2022-08-17T08:13:18.849Z,4.70
2022-08-17T08:15:56.860Z,4.43
2022-08-17T08:18:38.668Z,5.05
2022-08-17T08:21:48.801Z,4.70
2022-08-17T08:24:36.694Z,3.97
2022-08-17T08:27:19.461Z,4.60
2022-08-17T08:30:04.108Z,4.33
2022-08-17T08:33:05.044Z,4.35
2022-08-17T08:35:54.116Z,4.85
2022-08-17T08:38:31.459Z,4.60
2022-08-17T08:41:18.856Z,5.28
2022-08-17T08:44:06.689Z,4.73
2022-08-17T08:47:14.589Z,5.27
2022-08-17T08:50:37.209Z,4.85
2022-08-17T08:53:19.125Z,4.50
2022-08-17T08:56:09.597Z,5.80
2022-08-17T08:58:45.294Z,4.70
2022-08-17T09:01:52.375Z,4.80
2022-08-17T09:05:13.855Z,4.83
2022-08-17T09:08:10.547Z,5.30
2022-08-17T09:10:47.764Z,4.07
2022-08-17T09:13:24.536Z,5.07
2022-08-17T09:15:59.312Z,5.38
2022-08-17T09:19:03.007Z,4.40
2022-08-17T09:21:54.889Z,3.90
2022-08-17T09:24:34.960Z,4.28
2022-08-17T09:27:09.486Z,4.07
2022-08-17T09:29:43.217Z,4.57
2022-08-17T09:32:36.877Z,4.60
2022-08-17T09:35:15.596Z,3.90
2022-08-17T09:38:15.137Z,3.60
2022-08-17T09:41:05.089Z,3.60
2022-08-17T09:43:47.908Z,3.70
2022-08-17T09:46:38.792Z,4.70
2022-08-17T09:49:19.720Z,3.78
2022-08-17T09:52:12.195Z,3.35
2022-08-17T09:54:41.081Z,3.70
2022-08-17T09:57:49.930Z,3.93
2022-08-17T10:00:28.249Z,3.50
2022-08-17T10:03:31.614Z,3.58
2022-08-17T10:06:31.463Z,3.50
2022-08-17T10:09:26.925Z,3.83
2022-08-17T10:12:17.911Z,4.00
2022-08-17T10:15:13.738Z,3.50
2022-08-17T10:18:08.810Z,3.80
2022-08-17T10:21:21.890Z,3.20
2022-08-17T10:24:17.184Z,3.17
2022-08-17T10:26:57.169Z,3.78
2022-08-17T10:29:28.838Z,3.30
2022-08-17T10:32:07.270Z,3.90
2022-08-17T10:35:01.660Z,3.70
2022-08-17T10:38:03.723Z,3.58
2022-08-17T10:40:49.276Z,4.28
2022-08-17T10:43:25.992Z,3.67
2022-08-17T10:46:10.581Z,4.50
2022-08-17T10:49:19.257Z,3.93
2022-08-17T10:51:58.992Z,3.45
2022-08-17T10:54:36.912Z,3.38
2022-08-17T10:57:34.158Z,3.45
2022-08-17T11:00:16.141Z,3.67
2022-08-17T11:02:53.968Z,3.60
2022-08-17T11:05:45.737Z,3.67
2022-08-17T11:08:48.178Z,3.83
2022-08-17T11:11:37.266Z,3.38
2022-08-17T11:14:24.251Z,3.08
2022-08-17T11:17:24.537Z,4.38
2022-08-17T11:20:27.924Z,3.60
2022-08-17T11:22:59.217Z,4.03
2022-08-17T11:26:08.781Z,4.03
2022-08-17T11:28:48.899Z,4.10
2022-08-17T11:31:38.836Z,3.75
2022-08-17T11:34:19.620Z,3.38
2022-08-17T11:37:26.145Z,3.83
2022-08-17T11:40:14.923Z,3.93
2022-08-17T11:43:10.451Z,3.83
2022-08-17T11:45:51.207Z,3.90
2022-08-17T11:48:43.859Z,3.95
2022-08-17T11:51:36.329Z,4.50
2022-08-17T11:57:21.886Z,3.77
2022-08-17T12:00:08.518Z,4.10
2022-08-17T12:02:48.282Z,6.03
2022-08-17T12:05:17.443Z,3.70
2022-08-17T12:08:12.852Z,3.90
2022-08-17T12:11:01.962Z,3.28
2022-08-17T12:13:38.585Z,3.40
2022-08-17T12:16:08.474Z,3.43
2022-08-17T12:18:39.640Z,3.88
2022-08-17T12:21:33.386Z,3.75
2022-08-17T12:24:10.096Z,4.22
2022-08-17T12:26:39.756Z,3.75
2022-08-17T12:29:18.075Z,3.63
2022-08-17T12:32:04.057Z,4.00
2022-08-17T12:34:43.086Z,3.83
2022-08-17T12:37:18.775Z,3.47
2022-08-17T12:40:22.791Z,3.83
2022-08-17T12:43:20.129Z,3.83
2022-08-17T12:45:57.620Z,3.57
2022-08-17T12:48:28.714Z,3.88
2022-08-17T12:51:04.455Z,3.60
2022-08-17T12:53:35.973Z,3.85
2022-08-17T12:56:12.200Z,3.85
2022-08-17T12:58:48.674Z,3.80
2022-08-17T13:01:20.321Z,3.53
2022-08-17T13:03:52.698Z,4.10
2022-08-17T13:06:31.721Z,3.10
2022-08-17T13:09:20.629Z,3.67
2022-08-17T13:11:53.918Z,3.87
2022-08-17T13:14:24.756Z,3.40
2022-08-17T13:17:01.643Z,3.38
2022-08-17T13:19:40.608Z,4.07
2022-08-17T13:22:12.967Z,3.42
2022-08-17T13:24:53.333Z,3.65
2022-08-17T13:27:24.015Z,3.40
2022-08-17T13:29:55.822Z,3.55
2022-08-17T13:32:33.666Z,3.40
2022-08-17T13:35:52.093Z,3.78
2022-08-17T13:38:45.774Z,3.67
2022-08-17T13:41:37.240Z,3.80
2022-08-17T13:44:29.777Z,3.70
2022-08-17T13:46:59.877Z,3.08
2022-08-17T13:49:41.723Z,3.50
2022-08-17T13:52:39.357Z,4.00
2022-08-17T13:55:18.460Z,3.63
2022-08-17T13:57:50.013Z,3.23
2022-08-17T14:00:35.661Z,4.03
2022-08-17T14:03:05.824Z,3.28
2022-08-17T14:05:38.111Z,3.72
2022-08-17T14:08:06.888Z,3.40
2022-08-17T14:10:36.685Z,3.78
2022-08-17T14:13:05.851Z,3.70
2022-08-17T14:15:55.223Z,3.80
2022-08-17T14:18:31.237Z,4.65
2022-08-17T14:21:13.162Z,3.70
2022-08-17T14:23:41.115Z,3.90
2022-08-17T14:26:16.898Z,3.78
2022-08-17T14:28:54.612Z,3.67
2022-08-17T14:31:25.235Z,3.67
2022-08-17T14:33:56.022Z,4.32
2022-08-17T14:36:26.241Z,3.95
2022-08-17T14:38:56.426Z,3.53
2022-08-17T14:41:25.782Z,4.25
2022-08-17T14:43:54.079Z,3.63
2022-08-17T14:46:21.876Z,3.70
2022-08-17T14:48:57.094Z,3.50
2022-08-17T14:51:27.774Z,4.00
2022-08-17T14:53:55.718Z,4.40
2022-08-17T14:56:24.532Z,3.92
2022-08-17T14:58:52.410Z,4.03
2022-08-17T15:01:21.190Z,4.57
2022-08-17T15:03:49.160Z,4.43
2022-08-17T15:06:22.508Z,4.70
2022-08-17T15:08:51.782Z,3.47
2022-08-17T15:11:22.156Z,4.40
2022-08-17T15:13:54.029Z,3.97
2022-08-17T15:16:24.771Z,4.03
2022-08-17T15:18:52.928Z,4.10
2022-08-17T15:21:20.876Z,4.00
2022-08-17T15:23:48.698Z,3.92
2022-08-17T15:26:22.857Z,4.18
2022-08-17T15:28:54.301Z,4.37
2022-08-17T15:31:31.989Z,4.10
2022-08-17T15:34:03.151Z,3.72
2022-08-17T15:36:34.982Z,4.10
2022-08-17T15:39:05.771Z,4.10
2022-08-17T15:41:36.070Z,3.72
2022-08-17T15:44:12.543Z,4.43
2022-08-17T15:46:45.214Z,4.10
2022-08-17T15:49:16.879Z,4.30
2022-08-17T15:51:44.903Z,3.78
2022-08-17T15:54:18.656Z,4.20
2022-08-17T15:56:50.654Z,4.80
2022-08-17T15:59:21.732Z,4.25
2022-08-17T16:03:13.775Z,4.40
2022-08-17T16:04:40.828Z,4.47
2022-08-17T16:07:14.781Z,4.18
2022-08-17T16:09:45.628Z,4.63
2022-08-17T16:12:16.913Z,4.45
2022-08-17T16:14:47.741Z,4.32
2022-08-17T16:17:39.745Z,4.50
2022-08-17T16:20:06.221Z,3.72
2022-08-17T16:22:50.345Z,3.87
2022-08-17T16:25:22.330Z,4.55
2022-08-17T16:27:54.074Z,4.72
2022-08-17T16:30:29.044Z,4.88
2022-08-17T16:32:58.561Z,4.18
2022-08-17T16:35:29.679Z,4.40
2022-08-17T16:37:59.058Z,4.18
2022-08-17T16:40:29.217Z,4.00
2022-08-17T16:43:00.154Z,4.43
2022-08-17T16:45:36.840Z,4.05
2022-08-17T16:48:05.004Z,6.07
2022-08-17T16:50:34.059Z,3.90
2022-08-17T16:53:11.676Z,4.10
2022-08-17T16:55:39.432Z,4.63
2022-08-17T16:58:08.963Z,3.88
2022-08-17T17:00:37.425Z,4.25
2022-08-17T17:03:19.686Z,4.13
2022-08-17T17:06:17.171Z,3.93
2022-08-17T17:09:01.024Z,4.10
2022-08-17T17:11:41.768Z,4.10
2022-08-17T17:14:31.955Z,4.22
2022-08-17T17:17:14.151Z,3.83
2022-08-17T17:20:11.667Z,4.72
2022-08-17T17:23:03.865Z,5.63
2022-08-17T17:25:48.944Z,4.70
2022-08-17T17:28:24.943Z,4.82
2022-08-17T17:31:19.603Z,4.20
2022-08-17T17:33:53.463Z,3.85
2022-08-17T17:36:36.636Z,4.13
2022-08-17T17:39:15.821Z,4.60
2022-08-17T17:41:51.562Z,3.95
2022-08-17T17:44:26.500Z,4.03
2022-08-17T17:46:58.723Z,4.13
2022-08-17T17:49:35.970Z,3.92
2022-08-17T17:52:14.530Z,4.27
2022-08-17T17:55:15.320Z,4.30
2022-08-17T17:57:58.093Z,4.50
2022-08-17T18:00:57.362Z,4.20
2022-08-17T18:03:45.540Z,4.63
2022-08-17T18:06:31.150Z,4.00
2022-08-17T18:09:04.901Z,4.70
2022-08-17T18:12:08.933Z,5.57
2022-08-17T18:14:58.333Z,5.00
2022-08-17T18:17:29.835Z,4.80
2022-08-17T18:19:57.854Z,4.47
2022-08-17T18:22:28.371Z,3.63
2022-08-17T18:24:57.543Z,3.70
2022-08-17T18:27:37.992Z,4.60
2022-08-17T18:30:14.823Z,4.60
2022-08-17T18:32:46.733Z,4.25
2022-08-17T18:35:14.594Z,4.22
2022-08-17T18:37:45.226Z,4.35
2022-08-17T18:40:21.782Z,4.65
2022-08-17T18:43:03.162Z,4.57
2022-08-17T18:45:41.284Z,4.37
2022-08-17T18:48:36.659Z,4.40
2022-08-17T18:51:43.439Z,5.15
2022-08-17T18:54:23.693Z,5.07
2022-08-17T18:57:00.179Z,5.30
2022-08-17T18:59:47.202Z,4.72
2022-08-17T19:05:31.169Z,4.30
2022-08-17T19:08:28.508Z,4.73
2022-08-17T19:11:07.933Z,4.93
2022-08-17T19:13:47.692Z,5.05
2022-08-17T19:16:50.628Z,5.25
2022-08-17T19:19:38.771Z,4.38
2022-08-17T19:22:28.676Z,4.95
2022-08-17T19:25:11.559Z,5.20
2022-08-17T19:28:03.731Z,5.30
2022-08-17T19:30:33.997Z,4.50
2022-08-17T19:33:02.552Z,4.55
2022-08-17T19:36:06.074Z,4.38
2022-08-17T19:39:05.241Z,4.30
2022-08-17T19:42:02.280Z,5.10
2022-08-17T19:44:47.679Z,4.82
2022-08-17T19:47:50.941Z,4.13
2022-08-17T19:50:49.160Z,4.07
2022-08-17T19:53:47.454Z,4.88
2022-08-17T19:56:35.300Z,4.50
2022-08-17T19:59:13.982Z,4.57
2022-08-17T20:01:53.327Z,3.97
2022-08-17T20:04:42.918Z,4.60
2022-08-17T20:07:22.191Z,4.77
2022-08-17T20:10:06.994Z,4.57
2022-08-17T20:12:38.211Z,4.50
2022-08-17T20:15:20.558Z,4.75
2022-08-17T20:17:48.923Z,4.55
2022-08-17T20:21:03.509Z,4.93
2022-08-17T20:23:36.113Z,4.80
2022-08-17T20:26:20.068Z,4.60
2022-08-17T20:29:08.894Z,4.80
2022-08-17T20:31:51.565Z,4.68
2022-08-17T20:34:33.434Z,5.10
2022-08-17T20:37:14.621Z,5.30
2022-08-17T20:39:52.700Z,4.43
2022-08-17T20:42:20.422Z,4.83
2022-08-17T20:44:52.043Z,4.60
2022-08-17T20:47:27.327Z,4.80
2022-08-17T20:50:04.874Z,4.82
2022-08-17T20:52:52.351Z,4.82
2022-08-17T20:55:51.868Z,5.20
2022-08-17T20:58:31.110Z,4.67
2022-08-17T21:00:59.249Z,4.32
2022-08-17T21:03:49.095Z,7.13
2022-08-17T21:06:21.577Z,5.50
2022-08-17T21:09:12.690Z,4.93
2022-08-17T21:11:56.639Z,5.35
2022-08-17T21:15:07.233Z,5.37
2022-08-17T21:17:51.387Z,4.80
2022-08-17T21:20:51.456Z,5.35
2022-08-17T21:24:08.767Z,5.25
2022-08-17T21:27:00.440Z,4.97
2022-08-17T21:29:34.091Z,4.70
2022-08-17T21:32:10.103Z,4.90
2022-08-17T21:34:44.473Z,5.57
2022-08-17T21:37:23.962Z,5.93
2022-08-17T21:39:54.381Z,6.50
2022-08-17T21:42:29.938Z,6.47
2022-08-17T21:45:11.232Z,6.32
2022-08-17T21:47:43.854Z,5.93
2022-08-17T21:50:23.952Z,6.17
2022-08-17T21:52:57.133Z,5.10
2022-08-17T21:55:31.078Z,5.50
2022-08-17T21:58:13.635Z,5.88
2022-08-17T22:00:48.459Z,5.78
2022-08-17T22:03:30.540Z,5.70
2022-08-17T22:05:58.200Z,6.20
2022-08-17T22:08:26.584Z,6.13
2022-08-17T22:11:01.814Z,6.22
2022-08-17T22:13:30.143Z,6.45
2022-08-17T22:16:29.322Z,6.75
2022-08-17T22:18:59.551Z,7.25
2022-08-17T22:21:27.776Z,7.63
2022-08-17T22:24:18.183Z,7.27
2022-08-17T22:27:07.736Z,7.40
2022-08-17T22:29:42.974Z,7.20
2022-08-17T22:32:13.265Z,7.22
2022-08-17T22:34:41.481Z,6.90
2022-08-17T22:37:28.108Z,7.68
2022-08-17T22:39:59.643Z,6.65
2022-08-17T22:42:28.629Z,6.70
2022-08-17T22:44:56.414Z,8.90
2022-08-17T22:47:31.692Z,7.80
2022-08-17T22:50:01.779Z,6.20
2022-08-17T22:53:14.261Z,6.72
2022-08-17T22:56:12.954Z,6.15
2022-08-17T22:59:11.482Z,5.72
2022-08-17T23:01:40.138Z,5.97
2022-08-17T23:04:40.271Z,5.87
2022-08-17T23:07:08.299Z,5.70
2022-08-17T23:09:36.443Z,5.40
2022-08-17T23:12:08.923Z,6.05
2022-08-17T23:14:45.631Z,5.63
2022-08-17T23:17:13.668Z,5.50
2022-08-17T23:19:41.326Z,4.97
2022-08-17T23:22:10.711Z,5.70
2022-08-17T23:24:45.625Z,5.60
2022-08-17T23:27:14.271Z,5.05
2022-08-17T23:29:42.241Z,5.63
2022-08-17T23:32:15.058Z,5.15
2022-08-17T23:34:45.889Z,5.35
2022-08-17T23:37:13.938Z,5.40
2022-08-17T23:39:44.821Z,5.20
2022-08-17T23:42:21.787Z,5.38
2022-08-17T23:44:49.835Z,4.90
2022-08-17T23:47:18.115Z,5.30
2022-08-17T23:49:45.741Z,5.97
2022-08-17T23:52:16.542Z,6.03
2022-08-17T23:54:47.151Z,6.93
2022-08-17T23:57:18.026Z,5.50
2022-08-17T23:59:46.148Z,6.03
